Time;durP1;ratioP1;P1;durP2;ratioP2;P2;SDS_P1;SDS_P2;PMS_P1;PMS_P2;Temp;Humidity;BMP_temperature;BMP_pressure;BME280_temperature;BME280_humidity;BME280_pressure;Samples;Min_cycle;Max_cycle;Signal;HPM_P1;HPM_P2
2022/09/16 00:01:23;;;;;;;0.50;0.30;;;;;;;21.05;100.00;95045.28;5114587;28;20441;-58
2022/09/16 00:03:54;;;;;;;0.40;0.20;;;;;;;20.90;100.00;95048.69;5114599;28;20420;-58
2022/09/16 00:06:24;;;;;;;0.40;0.30;;;;;;;21.14;100.00;95048.66;5114550;28;20432;-58
2022/09/16 00:08:55;;;;;;;0.40;0.20;;;;;;;21.20;100.00;95044.59;5114196;28;20415;-58
2022/09/16 00:11:23;;;;;;;0.50;0.40;;;;;;;21.31;100.00;95037.59;5114012;28;20434;-58
2022/09/16 00:13:52;;;;;;;0.40;0.30;;;;;;;21.25;100.00;95041.63;5114133;28;20423;-58
2022/09/16 00:16:25;;;;;;;0.40;0.20;;;;;;;20.97;100.00;95035.44;5113921;28;20932;-58
2022/09/16 00:18:55;;;;;;;0.50;0.30;;;;;;;21.12;100.00;95017.78;5113901;28;20805;-58
2022/09/16 00:21:24;;;;;;;0.40;0.30;;;;;;;20.97;100.00;95016.59;5113957;28;20427;-58
2022/09/16 00:23:55;;;;;;;0.47;0.30;;;;;;;21.17;100.00;95036.41;5113856;28;20991;-59
2022/09/16 00:26:23;;;;;;;0.40;0.30;;;;;;;21.04;100.00;95024.88;5113905;28;20509;-58
2022/09/16 00:28:51;;;;;;;0.40;0.20;;;;;;;21.17;100.00;95021.03;5113689;27;20428;-58
2022/09/16 00:31:20;;;;;;;0.40;0.30;;;;;;;20.86;100.00;95016.28;5113603;28;20415;-58
2022/09/16 00:33:48;;;;;;;0.40;0.30;;;;;;;20.66;100.00;95027.19;5113872;28;20466;-58
2022/09/16 00:36:19;;;;;;;0.50;0.30;;;;;;;19.95;100.00;95026.84;5113637;28;20420;-57
2022/09/16 00:38:51;;;;;;;1.53;1.03;;;;;;;19.92;100.00;95020.25;5113899;28;20434;-57
2022/09/16 00:41:22;;;;;;;1.60;0.40;;;;;;;19.82;100.00;95020.69;5113540;28;20434;-57
2022/09/16 00:43:54;;;;;;;0.43;0.30;;;;;;;19.96;100.00;95023.06;5113338;28;20475;-57
2022/09/16 00:46:29;;;;;;;0.40;0.30;;;;;;;20.15;100.00;95017.91;5113429;28;20419;-57
2022/09/16 00:49:01;;;;;;;0.50;0.30;;;;;;;19.50;100.00;95014.25;5113319;28;20434;-57
2022/09/16 00:51:30;;;;;;;0.40;0.33;;;;;;;19.83;100.00;95011.50;5113178;28;20789;-58
2022/09/16 00:54:02;;;;;;;0.50;0.30;;;;;;;20.15;100.00;95020.59;5113423;28;20449;-58
2022/09/16 00:56:37;;;;;;;0.40;0.20;;;;;;;20.00;100.00;95022.03;5113034;28;20442;-57
2022/09/16 00:59:09;;;;;;;0.50;0.30;;;;;;;20.09;100.00;95027.31;5113497;28;20447;-58
2022/09/16 01:01:39;;;;;;;1.27;0.70;;;;;;;20.04;100.00;95022.94;5113510;28;20431;-58
2022/09/16 01:04:14;;;;;;;0.47;0.33;;;;;;;19.96;100.00;95029.19;5113017;28;20459;-58
2022/09/16 01:06:43;;;;;;;0.60;0.40;;;;;;;19.96;100.00;95039.19;5113317;28;20426;-57
2022/09/16 01:09:11;;;;;;;0.50;0.30;;;;;;;19.86;100.00;95032.31;5113346;28;20416;-58
2022/09/16 01:11:41;;;;;;;5.13;0.60;;;;;;;19.95;100.00;95027.66;5113253;28;20423;-58
2022/09/16 01:17:07;;;;;;;0.40;0.27;;;;;;;20.18;100.00;95039.56;5101945;28;20443;-57
2022/09/16 01:19:58;;;;;;;0.70;0.30;;;;;;;19.82;100.00;94980.34;5113266;28;20788;-58
2022/09/16 01:22:45;;;;;;;1.07;0.30;;;;;;;20.08;100.00;95021.16;5112927;28;20947;-58
2022/09/16 01:25:29;;;;;;;0.70;0.60;;;;;;;20.20;100.00;95014.97;5112688;28;20431;-57
2022/09/16 01:28:26;;;;;;;0.50;0.40;;;;;;;20.37;100.00;95019.38;5112901;28;20806;-58
2022/09/16 01:31:06;;;;;;;0.40;0.30;;;;;;;20.35;100.00;95021.63;5112998;28;20428;-58
2022/09/16 01:33:48;;;;;;;0.40;0.30;;;;;;;20.40;100.00;95016.00;5112805;28;20450;-57
2022/09/16 01:36:37;;;;;;;0.97;0.30;;;;;;;20.28;100.00;95032.97;5112955;28;20412;-58
2022/09/16 01:39:18;;;;;;;1.00;0.53;;;;;;;20.18;100.00;95028.78;5112406;28;20439;-58
2022/09/16 01:42:08;;;;;;;0.40;0.30;;;;;;;20.10;100.00;95012.75;5112121;28;20428;-58
2022/09/16 01:44:44;;;;;;;0.70;0.50;;;;;;;19.99;100.00;95012.38;5112749;28;20431;-58
2022/09/16 01:47:20;;;;;;;0.50;0.30;;;;;;;20.02;100.00;95025.19;5112376;28;20427;-58
2022/09/16 01:50:00;;;;;;;0.40;0.30;;;;;;;20.13;100.00;95018.25;5112510;28;20423;-58
2022/09/16 01:52:37;;;;;;;0.40;0.30;;;;;;;20.05;100.00;94988.75;5112510;28;20441;-58
2022/09/16 01:55:08;;;;;;;0.40;0.30;;;;;;;19.96;100.00;95010.38;5112582;28;20426;-57
2022/09/16 01:57:42;;;;;;;0.40;0.20;;;;;;;19.94;100.00;95012.63;5112303;28;20839;-57
2022/09/16 02:00:13;;;;;;;0.50;0.40;;;;;;;19.59;100.00;94938.84;5112259;28;20442;-57
2022/09/16 02:02:48;;;;;;;1.63;0.40;;;;;;;20.08;100.00;95014.97;5112014;28;20823;-57
2022/09/16 02:05:22;;;;;;;3.60;1.70;;;;;;;19.85;100.00;94963.53;5112472;28;20468;-57
2022/09/16 02:07:55;;;;;;;0.40;0.20;;;;;;;20.15;100.00;95007.94;5112194;28;20975;-58
2022/09/16 02:10:28;;;;;;;0.57;0.43;;;;;;;20.02;100.00;95016.31;5112454;28;20439;-57
2022/09/16 02:13:05;;;;;;;0.50;0.30;;;;;;;19.96;100.00;95020.38;5112205;28;20952;-58
2022/09/16 02:15:34;;;;;;;0.40;0.20;;;;;;;19.88;100.00;95016.66;5112071;28;20426;-57
2022/09/16 02:18:10;;;;;;;0.70;0.70;;;;;;;19.97;100.00;95017.31;5112015;28;20427;-58
2022/09/16 02:20:42;;;;;;;0.40;0.30;;;;;;;19.84;100.00;95012.25;5111831;28;20430;-58
2022/09/16 02:23:16;;;;;;;0.50;0.47;;;;;;;19.69;100.00;95010.22;5111939;28;20467;-58
2022/09/16 02:25:47;;;;;;;0.50;0.30;;;;;;;19.38;100.00;94965.81;5111893;28;20432;-57
2022/09/16 02:28:20;;;;;;;0.40;0.30;;;;;;;19.77;100.00;95007.44;5111944;28;20498;-57
2022/09/16 02:30:52;;;;;;;0.40;0.20;;;;;;;19.61;100.00;94985.78;5111976;28;20439;-58
2022/09/16 02:33:24;;;;;;;0.50;0.30;;;;;;;19.73;100.00;95008.44;5111898;28;20420;-58
2022/09/16 02:35:55;;;;;;;0.50;0.40;;;;;;;19.12;100.00;95010.16;5112104;28;20794;-58
2022/09/16 02:38:29;;;;;;;0.60;0.40;;;;;;;18.69;100.00;94999.78;5111994;28;20431;-58
2022/09/16 02:41:00;;;;;;;2.10;0.50;;;;;;;18.68;100.00;94990.13;5111823;28;20431;-58
2022/09/16 02:43:29;;;;;;;0.50;0.30;;;;;;;18.88;100.00;94992.81;5111700;28;20988;-58
2022/09/16 02:46:06;;;;;;;0.57;0.30;;;;;;;18.81;100.00;94946.13;5111823;28;20423;-58
2022/09/16 02:48:47;;;;;;;0.50;0.30;;;;;;;18.98;100.00;94992.41;5111801;28;20931;-58
2022/09/16 02:51:24;;;;;;;0.40;0.30;;;;;;;19.26;100.00;94991.84;5112035;28;20423;-58
2022/09/16 02:53:56;;;;;;;0.50;0.40;;;;;;;19.34;100.00;95004.41;5114595;28;20423;-57
2022/09/16 02:56:30;;;;;;;0.50;0.30;;;;;;;18.87;100.00;95011.94;5115576;28;20959;-58
2022/09/16 02:59:01;;;;;;;0.50;0.40;;;;;;;19.11;100.00;95016.63;5115935;28;20423;-58
2022/09/16 03:01:32;;;;;;;1.27;0.53;;;;;;;19.30;100.00;95019.63;5115855;28;20430;-58
2022/09/16 03:04:03;;;;;;;0.50;0.30;;;;;;;18.98;100.00;94995.09;5115734;28;20459;-58
2022/09/16 03:06:34;;;;;;;0.50;0.50;;;;;;;19.10;100.00;95010.47;5115346;28;20423;-58
2022/09/16 03:09:06;;;;;;;1.27;0.40;;;;;;;18.98;100.00;95013.91;5114956;28;20465;-58
2022/09/16 03:11:47;;;;;;;1.03;0.73;;;;;;;19.08;100.00;95007.34;5115355;28;20419;-58
2022/09/16 03:14:32;;;;;;;0.40;0.30;;;;;;;18.99;100.00;95004.75;5115286;27;20435;-58
2022/09/16 03:17:12;;;;;;;0.40;0.30;;;;;;;19.14;100.00;94986.44;5115358;27;20436;-58
2022/09/16 03:19:57;;;;;;;0.40;0.30;;;;;;;19.23;100.00;94992.50;5115466;28;20424;-58
2022/09/16 03:22:36;;;;;;;3.40;0.40;;;;;;;19.07;100.00;94994.25;5115207;28;20423;-58
2022/09/16 03:25:14;;;;;;;0.40;0.27;;;;;;;18.72;100.00;94956.94;5114991;28;20482;-58
2022/09/16 03:27:49;;;;;;;0.57;0.53;;;;;;;19.02;100.00;94981.81;5115317;28;20865;-58
2022/09/16 03:30:18;;;;;;;0.73;0.70;;;;;;;19.18;100.00;94976.56;5115052;28;20431;-58
2022/09/16 03:32:51;;;;;;;1.37;0.53;;;;;;;19.28;100.00;94984.22;5115149;28;20419;-58
2022/09/16 03:35:26;;;;;;;0.53;0.47;;;;;;;19.20;100.00;94987.81;5115218;28;20420;-58
2022/09/16 03:37:59;;;;;;;0.50;0.40;;;;;;;19.25;100.00;94995.66;5115043;28;20527;-58
2022/09/16 03:40:29;;;;;;;0.60;0.60;;;;;;;19.26;100.00;94994.53;5114803;28;20427;-58
2022/09/16 03:42:58;;;;;;;0.40;0.30;;;;;;;19.23;100.00;94995.97;5114979;28;20482;-58
2022/09/16 03:45:26;;;;;;;0.87;0.30;;;;;;;19.17;100.00;94988.47;5114669;28;20463;-59
2022/09/16 03:47:55;;;;;;;0.40;0.30;;;;;;;19.19;100.00;94992.38;5114830;28;20447;-58
2022/09/16 03:50:24;;;;;;;1.13;0.40;;;;;;;19.22;100.00;95004.38;5114535;28;20940;-58
2022/09/16 03:52:52;;;;;;;0.60;0.60;;;;;;;19.13;100.00;95003.66;5114460;28;20938;-58
2022/09/16 03:55:21;;;;;;;0.40;0.27;;;;;;;19.30;100.00;95001.59;5114802;28;20796;-58
2022/09/16 03:57:49;;;;;;;0.50;0.37;;;;;;;19.52;100.00;95003.16;5114182;27;20541;-58
2022/09/16 04:00:18;;;;;;;0.40;0.30;;;;;;;19.37;100.00;95003.78;5114664;28;20428;-58
2022/09/16 04:02:47;;;;;;;0.40;0.30;;;;;;;19.14;100.00;94999.84;5114637;28;20419;-59
2022/09/16 04:05:15;;;;;;;3.80;0.63;;;;;;;18.99;100.00;95003.94;5113627;28;20549;-59
2022/09/16 04:07:45;;;;;;;0.40;0.30;;;;;;;18.99;100.00;94996.69;5114512;27;20424;-59
2022/09/16 04:10:13;;;;;;;0.40;0.20;;;;;;;19.10;100.00;94988.97;5114130;28;20422;-59
2022/09/16 04:12:42;;;;;;;0.50;0.40;;;;;;;19.03;100.00;94992.22;5114274;28;20424;-58
2022/09/16 04:15:11;;;;;;;0.40;0.30;;;;;;;19.09;100.00;94986.63;5114129;28;20414;-59
2022/09/16 04:17:40;;;;;;;2.90;1.20;;;;;;;19.13;100.00;95003.66;5113954;28;20913;-58
2022/09/16 04:20:09;;;;;;;0.40;0.30;;;;;;;19.20;100.00;94995.88;5114012;28;20424;-59
2022/09/16 04:22:37;;;;;;;0.60;0.47;;;;;;;18.71;100.00;94998.34;5113890;28;20905;-59
2022/09/16 04:25:08;;;;;;;0.60;0.30;;;;;;;19.10;100.00;94988.22;5113918;28;20463;-58
2022/09/16 04:27:37;;;;;;;0.50;0.40;;;;;;;19.29;100.00;95004.59;5113963;28;20432;-58
2022/09/16 04:30:06;;;;;;;0.60;0.40;;;;;;;19.41;100.00;95007.34;5113591;28;20431;-59
2022/09/16 04:32:34;;;;;;;0.50;0.40;;;;;;;19.48;100.00;95021.81;5113848;28;20819;-58
2022/09/16 04:35:02;;;;;;;0.50;0.33;;;;;;;19.13;100.00;95011.72;5113710;28;20432;-58
2022/09/16 04:37:31;;;;;;;0.50;0.40;;;;;;;19.39;100.00;95012.28;5113440;28;20427;-58
2022/09/16 04:39:59;;;;;;;0.77;0.77;;;;;;;19.02;100.00;95022.84;5113622;28;20780;-58
2022/09/16 04:42:33;;;;;;;0.50;0.30;;;;;;;19.30;100.00;95023.06;5113119;28;20431;-58
2022/09/16 04:45:02;;;;;;;0.50;0.30;;;;;;;19.55;100.00;95021.31;5113549;28;20467;-58
2022/09/16 04:47:31;;;;;;;0.80;0.33;;;;;;;19.42;100.00;94968.63;5113185;28;20443;-58
2022/09/16 04:49:59;;;;;;;0.93;0.57;;;;;;;19.65;100.00;94988.63;5113540;28;20432;-58
2022/09/16 04:52:30;;;;;;;0.40;0.30;;;;;;;19.80;100.00;95012.16;5113610;28;20419;-58
2022/09/16 04:54:58;;;;;;;0.40;0.30;;;;;;;19.78;100.00;95002.84;5113135;28;20431;-58
2022/09/16 04:57:31;;;;;;;0.40;0.30;;;;;;;19.97;100.00;95006.56;5113263;28;20463;-58
2022/09/16 05:00:01;;;;;;;0.50;0.30;;;;;;;19.51;100.00;95015.00;5113095;28;20424;-58
2022/09/16 05:02:29;;;;;;;0.90;0.50;;;;;;;19.48;100.00;95016.44;5113284;28;20435;-58
2022/09/16 05:04:58;;;;;;;0.50;0.40;;;;;;;19.80;100.00;95011.38;5113306;28;20478;-58
2022/09/16 05:07:28;;;;;;;0.40;0.30;;;;;;;19.95;100.00;94991.88;5113355;28;20442;-60
2022/09/16 05:09:56;;;;;;;0.60;0.60;;;;;;;20.20;100.00;95028.44;5112934;28;20925;-57
2022/09/16 05:12:25;;;;;;;0.40;0.30;;;;;;;20.04;100.00;95014.84;5113373;28;20428;-57
2022/09/16 05:14:53;;;;;;;2.63;0.70;;;;;;;19.76;100.00;95019.31;5112658;28;20432;-59
2022/09/16 05:17:23;;;;;;;0.50;0.30;;;;;;;19.78;100.00;95014.41;5111983;27;20427;-59
2022/09/16 05:20:13;;;;;;;1.17;1.10;;;;;;;19.51;100.00;95015.00;5112715;28;20977;-59
2022/09/16 05:22:41;;;;;;;0.53;0.53;;;;;;;19.35;100.00;95005.97;5112720;28;20484;-58
2022/09/16 05:25:09;;;;;;;0.57;0.40;;;;;;;19.34;100.00;95007.88;5112456;28;20471;-58
2022/09/16 05:27:38;;;;;;;0.60;0.60;;;;;;;19.84;100.00;95001.50;5112720;28;20423;-59
2022/09/16 05:30:08;;;;;;;0.40;0.30;;;;;;;20.11;100.00;95001.63;5112582;28;20435;-58
2022/09/16 05:32:38;;;;;;;3.13;1.03;;;;;;;19.91;100.00;94991.75;5112819;28;20433;-57
2022/09/16 05:35:06;;;;;;;0.70;0.63;;;;;;;19.84;100.00;94999.59;5112664;28;20916;-57
2022/09/16 05:37:35;;;;;;;0.50;0.40;;;;;;;20.31;100.00;94986.53;5112540;28;20928;-56
2022/09/16 05:40:03;;;;;;;0.50;0.40;;;;;;;20.87;100.00;94992.81;5112756;28;20419;-56
2022/09/16 05:42:32;;;;;;;1.80;1.70;;;;;;;20.80;100.00;94995.28;5112388;28;20438;-56
2022/09/16 05:45:00;;;;;;;1.20;1.10;;;;;;;21.35;100.00;94984.53;5112487;28;20455;-57
2022/09/16 05:47:28;;;;;;;0.90;0.80;;;;;;;21.31;100.00;94986.38;5112367;28;20551;-56
2022/09/16 05:49:58;;;;;;;0.90;0.60;;;;;;;21.74;100.00;94993.66;5112702;28;20455;-56
2022/09/16 05:52:27;;;;;;;0.53;0.50;;;;;;;21.22;100.00;94952.59;5112641;28;20848;-55
2022/09/16 05:54:55;;;;;;;0.60;0.40;;;;;;;22.14;100.00;94988.88;5112682;28;20419;-55
2022/09/16 05:57:24;;;;;;;0.50;0.30;;;;;;;22.64;100.00;94980.00;5112082;28;20471;-56
2022/09/16 05:59:52;;;;;;;0.60;0.60;;;;;;;22.10;100.00;94992.63;5112538;28;20439;-56
2022/09/16 06:02:20;;;;;;;0.70;0.70;;;;;;;22.69;100.00;94987.84;5112268;28;20434;-56
2022/09/16 06:04:49;;;;;;;0.60;0.60;;;;;;;22.68;100.00;94980.09;5112444;28;20420;-59
2022/09/16 06:07:18;;;;;;;1.57;1.47;;;;;;;22.49;100.00;94982.75;5112548;28;20771;-55
2022/09/16 06:09:46;;;;;;;2.83;0.80;;;;;;;22.82;100.00;94995.84;5112216;28;20415;-56
2022/09/16 06:12:15;;;;;;;0.67;0.50;;;;;;;23.07;100.00;94986.31;5112443;28;20427;-56
2022/09/16 06:14:43;;;;;;;0.67;0.50;;;;;;;22.59;100.00;94976.78;5112059;28;20412;-56
2022/09/16 06:17:11;;;;;;;0.50;0.50;;;;;;;21.78;100.00;94991.03;5112374;28;20492;-56
2022/09/16 06:19:40;;;;;;;0.60;0.60;;;;;;;21.70;100.00;94992.00;5112094;28;20420;-56
2022/09/16 06:22:08;;;;;;;0.70;0.60;;;;;;;22.24;100.00;94982.16;5111971;28;20963;-56
2022/09/16 06:24:38;;;;;;;1.40;1.30;;;;;;;22.55;100.00;94987.50;5112350;28;20420;-56
2022/09/16 06:27:07;;;;;;;0.80;0.60;;;;;;;22.56;100.00;94972.09;5111823;28;20471;-57
2022/09/16 06:29:35;;;;;;;0.83;0.83;;;;;;;23.53;100.00;94977.16;5116074;28;20964;-56
2022/09/16 06:32:04;;;;;;;0.50;0.40;;;;;;;24.20;100.00;94983.75;5116343;28;20428;-56
2022/09/16 06:34:32;;;;;;;1.10;1.00;;;;;;;23.51;100.00;94982.16;5116339;27;20928;-56
2022/09/16 06:37:01;;;;;;;0.50;0.40;;;;;;;23.52;100.00;94978.31;5115865;28;20428;-56
2022/09/16 06:39:29;;;;;;;0.63;0.50;;;;;;;24.36;94.61;94984.38;5116215;28;20794;-56
2022/09/16 06:41:58;;;;;;;0.50;0.33;;;;;;;24.12;99.29;94967.75;5116183;28;20431;-56
2022/09/16 06:44:27;;;;;;;0.50;0.50;;;;;;;24.75;92.99;94976.81;5115967;28;20426;-56
2022/09/16 06:46:55;;;;;;;0.50;0.40;;;;;;;25.22;86.14;94977.03;5116013;27;21010;-55
2022/09/16 06:49:23;;;;;;;0.50;0.40;;;;;;;25.66;76.88;94970.94;5116122;28;20419;-55
2022/09/16 06:51:51;;;;;;;0.40;0.30;;;;;;;25.78;77.61;94947.03;5115944;28;20435;-56
2022/09/16 06:54:20;;;;;;;0.63;0.43;;;;;;;26.04;75.41;94954.22;5115671;28;20427;-56
2022/09/16 06:56:48;;;;;;;0.80;0.30;;;;;;;25.72;79.96;94947.75;5115650;27;21116;-56
2022/09/16 06:59:18;;;;;;;2.30;0.87;;;;;;;26.63;75.45;94941.47;5115910;28;20511;-57
2022/09/16 07:01:46;;;;;;;0.70;0.70;;;;;;;26.90;71.31;94951.72;5115861;28;20812;-56
2022/09/16 07:04:14;;;;;;;0.60;0.53;;;;;;;26.87;70.34;94960.66;5115781;28;20463;-55
2022/09/16 07:06:44;;;;;;;0.50;0.33;;;;;;;26.85;72.49;94960.25;5115634;28;20468;-55
2022/09/16 07:09:33;;;;;;;0.47;0.47;;;;;;;27.04;66.28;94956.47;5115116;28;20440;-55
2022/09/16 07:12:01;;;;;;;0.87;0.57;;;;;;;27.52;65.25;94952.38;5115181;28;20430;-55
2022/09/16 07:14:32;;;;;;;0.50;0.50;;;;;;;28.20;60.62;94954.03;5115477;28;20435;-56
2022/09/16 07:17:01;;;;;;;0.60;0.37;;;;;;;28.25;59.29;94941.94;5115490;28;20455;-56
2022/09/16 07:19:29;;;;;;;0.93;0.83;;;;;;;28.30;59.03;94944.28;5115028;28;20543;-55
2022/09/16 07:21:58;;;;;;;0.70;0.70;;;;;;;28.35;60.78;94952.06;5115411;28;20434;-55
2022/09/16 07:24:26;;;;;;;1.80;1.03;;;;;;;28.66;56.40;94950.47;5114990;28;20428;-55
2022/09/16 07:26:54;;;;;;;0.50;0.50;;;;;;;28.79;53.81;94924.34;5115174;28;20853;-55
2022/09/16 07:29:22;;;;;;;1.37;0.60;;;;;;;29.17;53.83;94952.66;5114885;28;20420;-54
2022/09/16 07:31:52;;;;;;;1.20;0.90;;;;;;;28.72;51.88;94938.75;5115002;28;20444;-55
2022/09/16 07:34:21;;;;;;;0.50;0.47;;;;;;;29.56;51.27;94939.59;5114758;28;20438;-56
2022/09/16 07:36:50;;;;;;;0.47;0.47;;;;;;;30.00;48.60;94912.41;5114647;28;20436;-56
2022/09/16 07:39:20;;;;;;;0.50;0.40;;;;;;;30.95;46.71;94921.66;5113841;28;20441;-56
2022/09/16 07:41:48;;;;;;;0.70;0.40;;;;;;;31.30;45.75;94926.69;5114510;28;20435;-55
2022/09/16 07:44:19;;;;;;;0.47;0.40;;;;;;;31.85;41.25;94925.56;5114656;28;20428;-55
2022/09/16 07:46:49;;;;;;;0.40;0.37;;;;;;;32.08;42.25;94928.34;5114532;28;20468;-55
2022/09/16 07:49:20;;;;;;;0.40;0.30;;;;;;;31.61;41.03;94926.69;5114542;28;20435;-55
2022/09/16 07:51:48;;;;;;;1.13;0.50;;;;;;;31.39;42.30;94929.72;5114565;28;20426;-55
2022/09/16 07:54:18;;;;;;;0.60;0.60;;;;;;;31.45;41.45;94929.28;5114678;28;20815;-55
2022/09/16 07:56:47;;;;;;;5.30;0.60;;;;;;;31.59;40.50;94912.66;5114223;28;20482;-55
2022/09/16 07:59:18;;;;;;;0.40;0.30;;;;;;;31.03;40.92;94920.41;5114605;28;20457;-55
2022/09/16 08:01:48;;;;;;;0.50;0.50;;;;;;;31.15;41.42;94930.81;5114649;28;20475;-55
2022/09/16 08:04:19;;;;;;;0.50;0.50;;;;;;;31.43;41.58;94924.97;5114303;28;20430;-54
2022/09/16 08:06:48;;;;;;;0.40;0.30;;;;;;;31.58;39.69;94933.00;5114244;28;20466;-55
2022/09/16 08:09:16;;;;;;;0.40;0.30;;;;;;;32.63;37.67;94923.13;5114524;28;20432;-55
2022/09/16 08:12:06;;;;;;;0.40;0.30;;;;;;;32.86;36.01;94916.03;5114040;28;20499;-55
2022/09/16 08:14:35;;;;;;;6.03;0.50;;;;;;;31.95;38.64;94895.25;5114193;28;20484;-55
2022/09/16 08:17:03;;;;;;;0.80;0.50;;;;;;;31.35;40.27;94901.59;5114004;28;20447;-55
2022/09/16 08:19:33;;;;;;;0.67;0.50;;;;;;;31.85;39.15;94904.41;5114253;28;20426;-55
2022/09/16 08:22:01;;;;;;;0.70;0.70;;;;;;;31.79;39.28;94905.31;5114064;28;20432;-55
2022/09/16 08:24:30;;;;;;;0.77;0.77;;;;;;;32.56;39.70;94904.03;5114080;28;20430;-55
2022/09/16 08:26:58;;;;;;;1.57;1.47;;;;;;;32.34;37.22;94911.06;5114254;28;20956;-55
2022/09/16 08:29:26;;;;;;;1.10;0.40;;;;;;;31.73;38.37;94904.22;5113887;28;20860;-55
2022/09/16 08:31:55;;;;;;;0.97;0.93;;;;;;;29.54;42.64;94854.56;5114168;28;20436;-56
2022/09/16 08:34:23;;;;;;;0.50;0.50;;;;;;;29.14;45.01;94904.31;5114056;28;20426;-56
2022/09/16 08:36:53;;;;;;;0.70;0.70;;;;;;;29.56;45.29;94895.91;5113757;28;20417;-55
2022/09/16 08:39:21;;;;;;;0.40;0.40;;;;;;;30.16;44.53;94888.03;5113657;28;20425;-55
2022/09/16 08:42:28;;;;;;;0.60;0.60;;;;;;;30.99;44.23;94877.84;5113938;28;20923;-55
2022/09/16 08:45:08;;;;;;;0.70;0.67;;;;;;;30.97;41.99;94872.75;5113700;27;20439;-55
2022/09/16 08:47:48;;;;;;;1.00;1.00;;;;;;;31.18;39.90;94852.53;5113730;28;20857;-55
2022/09/16 08:50:29;;;;;;;4.70;2.03;;;;;;;31.29;40.97;94875.09;5113473;27;20433;-55
2022/09/16 08:53:03;;;;;;;0.47;0.40;;;;;;;31.91;39.86;94856.16;5113622;28;20910;-55
2022/09/16 08:55:35;;;;;;;0.40;0.40;;;;;;;33.57;37.03;94869.47;5113553;28;20450;-54
2022/09/16 08:58:07;;;;;;;0.40;0.30;;;;;;;34.25;35.60;94854.88;5113198;28;20473;-54
2022/09/16 09:00:37;;;;;;;1.00;0.90;;;;;;;33.63;35.75;94851.25;5113414;28;20935;-54
2022/09/16 09:03:14;;;;;;;0.70;0.70;;;;;;;33.85;35.42;94862.53;5111764;28;20433;-54
2022/09/16 09:05:52;;;;;;;1.93;0.73;;;;;;;34.10;34.78;94872.94;5111937;28;20418;-55
2022/09/16 09:08:38;;;;;;;0.60;0.60;;;;;;;34.10;34.29;94848.19;5113072;28;20475;-55
2022/09/16 09:11:16;;;;;;;0.47;0.30;;;;;;;35.25;33.53;94812.38;5113056;28;20470;-55
2022/09/16 09:13:54;;;;;;;0.50;0.50;;;;;;;35.72;33.62;94830.56;5113364;28;20433;-54
2022/09/16 09:16:33;;;;;;;1.37;0.90;;;;;;;35.44;31.70;94825.94;5113297;28;20427;-54
2022/09/16 09:19:17;;;;;;;0.70;0.60;;;;;;;34.91;33.98;94799.97;5113147;28;20518;-54
2022/09/16 09:21:53;;;;;;;0.80;0.80;;;;;;;34.98;32.49;94827.31;5112889;28;20439;-53
2022/09/16 09:24:37;;;;;;;0.40;0.30;;;;;;;34.24;34.72;94818.31;5112824;27;20455;-54
2022/09/16 09:27:14;;;;;;;0.40;0.30;;;;;;;34.61;36.19;94816.94;5112862;28;20464;-54
2022/09/16 09:30:03;;;;;;;0.30;0.30;;;;;;;34.04;36.52;94819.63;5112734;28;20197;-54
2022/09/16 09:32:45;;;;;;;0.57;0.47;;;;;;;34.83;35.29;94809.66;5112790;28;20190;-53
2022/09/16 09:35:36;;;;;;;0.70;0.57;;;;;;;35.49;33.93;94775.00;5112969;28;20187;-53
2022/09/16 09:38:40;;;;;;;0.40;0.30;;;;;;;35.36;34.81;94804.56;5112858;28;20226;-54
2022/09/16 09:41:16;;;;;;;7.53;0.90;;;;;;;34.79;34.96;94803.47;5065200;28;20453;-54
2022/09/16 09:43:50;;;;;;;1.17;0.50;;;;;;;35.00;34.57;94797.34;5112364;27;20191;-54
2022/09/16 09:46:25;;;;;;;0.90;0.50;;;;;;;35.26;35.18;94795.41;5112588;28;20197;-55
2022/09/16 09:49:00;;;;;;;0.63;0.40;;;;;;;36.58;33.46;94787.13;5112710;28;20205;-55
2022/09/16 09:51:40;;;;;;;0.50;0.50;;;;;;;36.39;36.25;94799.97;5112351;28;20190;-55
2022/09/16 09:54:22;;;;;;;0.60;0.53;;;;;;;36.89;32.80;94793.44;5112338;28;20205;-56
2022/09/16 09:56:57;;;;;;;0.63;0.60;;;;;;;37.93;31.24;94780.72;5112182;28;20238;-56
2022/09/16 09:59:30;;;;;;;0.50;0.40;;;;;;;36.50;33.42;94767.28;5112260;28;20575;-56
2022/09/16 10:02:00;;;;;;;0.40;0.40;;;;;;;37.41;33.12;94776.13;5112033;28;20191;-56
2022/09/16 10:04:36;;;;;;;2.43;0.60;;;;;;;37.47;31.69;94771.53;5112448;28;20279;-56
2022/09/16 10:07:07;;;;;;;3.30;1.02;;;;;;;36.28;32.72;94753.44;5112006;28;20219;-56
2022/09/16 10:09:37;;;;;;;0.80;0.80;;;;;;;36.04;34.94;94752.31;5112505;28;20245;-56
2022/09/16 10:12:07;;;;;;;0.33;0.30;;;;;;;37.30;32.75;94748.09;5112048;28;20242;-56
2022/09/16 10:14:37;;;;;;;0.50;0.30;;;;;;;38.29;31.53;94746.75;5112507;28;20190;-56
2022/09/16 10:17:15;;;;;;;0.88;0.88;;;;;;;38.17;29.65;94744.94;5112074;28;20591;-56
2022/09/16 10:19:51;;;;;;;0.82;0.65;;;;;;;37.49;30.99;94742.19;5112099;28;20192;-56
2022/09/16 10:22:24;;;;;;;0.40;0.40;;;;;;;37.60;32.17;94738.97;5112433;28;20207;-55
2022/09/16 10:24:57;;;;;;;0.32;0.30;;;;;;;37.89;32.79;94744.91;5112225;28;20199;-56
2022/09/16 10:27:29;;;;;;;0.50;0.40;;;;;;;38.39;30.06;94740.03;5111784;28;20218;-56
2022/09/16 10:30:12;;;;;;;0.45;0.43;;;;;;;38.19;30.71;94753.53;5111947;28;20666;-56
2022/09/16 10:32:50;;;;;;;5.35;0.47;;;;;;;38.70;29.99;94765.53;5111794;28;20205;-56
2022/09/16 10:35:22;;;;;;;0.50;0.38;;;;;;;39.16;27.92;94744.03;5112056;28;20196;-56
2022/09/16 10:37:56;;;;;;;0.50;0.50;;;;;;;39.37;27.74;94737.50;5111948;28;20193;-55
2022/09/16 10:40:25;;;;;;;0.80;0.80;;;;;;;39.78;27.32;94717.25;5111693;28;20208;-55
2022/09/16 10:43:01;;;;;;;0.22;0.20;;;;;;;40.28;24.96;94739.75;5112056;28;20197;-55
2022/09/16 10:45:34;;;;;;;0.45;0.45;;;;;;;40.89;21.37;94738.88;5111791;28;20589;-56
2022/09/16 10:48:07;;;;;;;0.40;0.40;;;;;;;41.06;19.29;94728.06;5112054;28;20220;-56
2022/09/16 10:50:36;;;;;;;11.55;0.50;;;;;;;40.39;20.93;94701.06;5112065;28;20232;-55
2022/09/16 10:53:22;;;;;;;7.18;0.68;;;;;;;40.09;20.66;94700.25;5112040;28;20575;-55
2022/09/16 10:55:58;;;;;;;0.20;0.20;;;;;;;40.92;20.07;94714.91;5111541;28;20252;-54
2022/09/16 10:58:27;;;;;;;0.50;0.50;;;;;;;41.58;20.24;94709.63;5111497;28;20241;-56
2022/09/16 11:01:19;;;;;;;0.20;0.20;;;;;;;41.46;21.10;94694.03;5111384;28;20196;-55
2022/09/16 11:04:31;;;;;;;0.25;0.25;;;;;;;40.06;20.32;94697.66;5111643;28;20189;-56
2022/09/16 11:07:18;;;;;;;0.30;0.20;;;;;;;40.40;20.48;94691.50;5111447;28;20196;-54
2022/09/16 11:09:57;;;;;;;3.30;0.47;;;;;;;41.37;20.21;94697.69;5111551;28;20746;-55
2022/09/16 11:12:41;;;;;;;0.55;0.55;;;;;;;40.47;19.04;94685.59;5111648;28;20198;-55
2022/09/16 11:15:20;;;;;;;0.20;0.20;;;;;;;40.80;18.78;94627.78;5115010;28;20246;-55
2022/09/16 11:18:05;;;;;;;0.30;0.30;;;;;;;41.21;18.50;94667.63;5115550;28;20189;-56
2022/09/16 11:20:47;;;;;;;0.50;0.50;;;;;;;41.22;18.78;94673.91;5115133;28;20205;-56
2022/09/16 11:23:32;;;;;;;0.50;0.30;;;;;;;41.65;17.61;94676.59;5115247;28;20196;-56
2022/09/16 11:26:08;;;;;;;0.40;0.40;;;;;;;41.07;17.85;94665.63;5115409;28;20197;-55
2022/09/16 11:28:58;;;;;;;0.40;0.40;;;;;;;41.78;17.33;94663.13;5115267;28;20226;-55
2022/09/16 11:31:40;;;;;;;0.40;0.40;;;;;;;42.46;18.66;94650.69;5114935;28;20679;-55
2022/09/16 11:34:21;;;;;;;2.75;0.73;;;;;;;41.85;17.66;94653.56;5114987;28;20571;-56
2022/09/16 11:37:02;;;;;;;0.80;0.80;;;;;;;41.10;17.90;94634.06;5115077;28;20210;-56
2022/09/16 11:39:42;;;;;;;0.30;0.20;;;;;;;41.10;18.75;94640.41;5114858;28;20194;-56
2022/09/16 11:42:19;;;;;;;7.40;0.75;;;;;;;40.62;18.94;94641.91;5114881;28;20207;-57
2022/09/16 11:44:57;;;;;;;0.40;0.30;;;;;;;41.34;17.64;94639.50;5114620;28;20222;-56
2022/09/16 11:47:48;;;;;;;0.30;0.30;;;;;;;41.31;18.14;94640.47;5114551;28;20198;-57
2022/09/16 11:50:28;;;;;;;0.20;0.20;;;;;;;42.25;17.19;94627.75;5114791;28;20675;-56
2022/09/16 11:53:30;;;;;;;0.45;0.45;;;;;;;41.76;17.52;94628.69;5114591;28;20201;-56
2022/09/16 11:56:08;;;;;;;1.85;0.45;;;;;;;41.02;17.64;94624.59;5114458;28;20197;-57
2022/09/16 11:58:45;;;;;;;0.85;0.25;;;;;;;40.90;18.22;94620.91;5114251;28;20255;-56
2022/09/16 12:01:23;;;;;;;2.90;1.95;;;;;;;40.76;17.96;94615.34;5114350;28;20637;-56